Time;durP1;ratioP1;P1;durP2;ratioP2;P2;SDS_P1;SDS_P2;PMS_P1;PMS_P2;Temp;Humidity;BMP_temperature;BMP_pressure;BME280_temperature;BME280_humidity;BME280_pressure;Samples;Min_cycle;Max_cycle;Signal;HPM_P1;HPM_P2
2022/05/26 00:01:05;;;;;;;0.98;0.55;;;18.10;83.30;;;;;;5038108;28;20541;-67
2022/05/26 00:03:32;;;;;;;1.80;0.75;;;18.10;83.60;;;;;;5037498;28;20023;-67
2022/05/26 00:05:59;;;;;;;1.45;0.52;;;18.10;83.80;;;;;;5036124;28;20021;-67
2022/05/26 00:08:26;;;;;;;2.30;0.60;;;18.10;83.60;;;;;;5035560;28;20021;-67
2022/05/26 00:10:51;;;;;;;1.20;0.50;;;18.10;84.00;;;;;;5035808;28;20091;-67
2022/05/26 00:13:17;;;;;;;3.03;0.60;;;18.00;84.10;;;;;;5039465;28;20026;-66
2022/05/26 00:15:43;;;;;;;0.40;0.30;;;18.00;84.00;;;;;;5036748;28;20124;-67
2022/05/26 00:18:08;;;;;;;1.83;0.60;;;17.90;84.70;;;;;;5038572;28;20411;-67
2022/05/26 00:20:34;;;;;;;1.90;0.60;;;17.90;84.60;;;;;;5035164;28;20133;-66
2022/05/26 00:22:59;;;;;;;1.85;1.10;;;17.90;84.90;;;;;;5036296;28;20034;-66
2022/05/26 00:25:25;;;;;;;2.85;0.98;;;17.80;85.30;;;;;;5034752;28;20040;-66
2022/05/26 00:27:50;;;;;;;2.65;0.80;;;18.00;85.50;;;;;;5035059;28;20104;-67
2022/05/26 00:30:16;;;;;;;5.13;0.90;;;17.90;85.80;;;;;;5036188;28;20088;-67
2022/05/26 00:32:41;;;;;;;1.15;0.50;;;17.90;85.80;;;;;;5036192;28;20100;-66
2022/05/26 00:35:08;;;;;;;1.00;0.40;;;17.90;86.00;;;;;;5036005;28;20045;-67
2022/05/26 00:37:34;;;;;;;2.88;0.60;;;17.90;86.10;;;;;;5038536;28;20260;-67
2022/05/26 00:40:02;;;;;;;1.77;0.90;;;17.80;86.50;;;;;;5037905;28;20096;-67
2022/05/26 00:42:28;;;;;;;1.77;0.60;;;17.70;86.80;;;;;;5036626;28;20032;-67
2022/05/26 00:44:53;;;;;;;1.05;0.50;;;17.70;87.30;;;;;;5036508;28;20079;-67
2022/05/26 00:47:22;;;;;;;0.80;0.50;;;17.70;87.40;;;;;;5036551;28;20472;-67
2022/05/26 00:50:14;;;;;;;1.95;0.50;;;17.70;87.70;;;;;;5036133;28;20792;-67
2022/05/26 00:52:45;;;;;;;2.05;0.55;;;17.60;87.70;;;;;;5033251;28;20487;-67
2022/05/26 00:55:23;;;;;;;2.33;0.77;;;17.70;88.20;;;;;;5035827;28;20022;-67
2022/05/26 00:58:01;;;;;;;0.98;0.50;;;17.70;88.40;;;;;;5033935;28;20025;-66
2022/05/26 01:00:30;;;;;;;4.72;0.70;;;17.80;87.70;;;;;;5036598;28;20032;-66
2022/05/26 01:03:06;;;;;;;3.60;0.60;;;17.80;87.60;;;;;;5035432;28;20021;-66
2022/05/26 01:05:46;;;;;;;1.37;0.60;;;17.70;87.80;;;;;;5034449;28;20123;-66
2022/05/26 01:08:47;;;;;;;3.47;0.77;;;17.70;87.60;;;;;;5036025;28;20025;-66
2022/05/26 01:11:13;;;;;;;1.88;0.50;;;17.70;88.30;;;;;;5036903;28;20040;-66
2022/05/26 01:13:47;;;;;;;1.83;0.82;;;17.60;88.30;;;;;;5036352;28;20021;-67
2022/05/26 01:16:36;;;;;;;1.70;0.50;;;17.60;88.00;;;;;;5034301;28;20033;-67
2022/05/26 01:19:13;;;;;;;1.80;0.50;;;17.70;88.10;;;;;;5033419;28;20547;-67
2022/05/26 01:21:52;;;;;;;2.63;0.47;;;17.70;87.90;;;;;;5033276;28;20471;-67
2022/05/26 01:24:42;;;;;;;0.50;0.50;;;17.60;88.20;;;;;;5035112;28;20079;-67
2022/05/26 01:27:33;;;;;;;2.45;0.52;;;17.60;88.50;;;;;;5033660;28;20072;-67
2022/05/26 01:30:09;;;;;;;1.10;0.52;;;17.60;88.50;;;;;;5034875;28;20021;-67
2022/05/26 01:32:39;;;;;;;1.48;0.98;;;17.60;88.80;;;;;;5034500;28;20096;-67
2022/05/26 01:35:23;;;;;;;4.72;0.63;;;17.50;89.40;;;;;;5034928;28;20025;-67
2022/05/26 01:38:21;;;;;;;4.32;1.00;;;17.50;89.30;;;;;;5034615;28;20083;-67
2022/05/26 01:41:03;;;;;;;;;;;17.50;89.50;;;;;;5034838;28;20383;-66
2022/05/26 01:43:48;;;;;;;1.35;0.45;;;17.60;90.00;;;;;;5034444;28;19909;-67
2022/05/26 01:46:36;;;;;;;1.45;0.50;;;17.60;89.20;;;;;;5033000;28;20113;-67
2022/05/26 01:49:14;;;;;;;1.35;0.50;;;17.60;89.10;;;;;;5032327;23;20500;-65
2022/05/26 01:51:54;;;;;;;5.28;0.90;;;17.70;89.20;;;;;;4976626;28;20511;-66
2022/05/26 01:54:53;;;;;;;2.03;0.70;;;17.60;89.00;;;;;;4994052;28;20077;-65
2022/05/26 01:57:35;;;;;;;2.42;0.50;;;17.60;89.10;;;;;;4994085;28;20030;-65
2022/05/26 02:00:08;;;;;;;3.80;0.60;;;17.50;89.40;;;;;;4993776;28;20033;-65
2022/05/26 02:02:46;;;;;;;4.35;1.00;;;17.50;89.30;;;;;;4994125;28;20048;-65
2022/05/26 02:05:16;;;;;;;0.98;0.60;;;17.50;89.50;;;;;;4976274;28;20022;-66
2022/05/26 02:07:47;;;;;;;1.80;0.70;;;17.60;89.50;;;;;;4993791;28;20027;-66
2022/05/26 02:10:21;;;;;;;1.10;0.60;;;17.50;89.30;;;;;;4976049;28;20093;-66
2022/05/26 02:12:51;;;;;;;3.17;0.80;;;17.50;89.30;;;;;;4993935;28;20114;-65
2022/05/26 02:15:27;;;;;;;3.17;0.50;;;17.60;89.60;;;;;;4993701;28;20057;-65
2022/05/26 02:18:21;;;;;;;3.05;0.93;;;17.50;89.70;;;;;;4993712;28;20089;-65
2022/05/26 02:20:54;;;;;;;1.92;0.52;;;17.50;89.90;;;;;;4914857;29;20112;-65
2022/05/26 02:23:32;;;;;;;1.65;0.60;;;17.50;90.10;;;;;;4898468;29;20028;-65
2022/05/26 02:26:01;;;;;;;3.95;0.77;;;17.50;90.20;;;;;;4914942;29;20032;-66
2022/05/26 02:28:27;;;;;;;1.98;0.60;;;17.50;90.30;;;;;;4915345;29;20480;-66
2022/05/26 02:30:54;;;;;;;1.92;0.50;;;17.40;90.50;;;;;;4914646;29;20038;-63
2022/05/26 02:33:19;;;;;;;1.98;0.60;;;17.50;90.60;;;;;;4914581;29;20059;-65
2022/05/26 02:35:49;;;;;;;0.63;0.43;;;17.40;90.70;;;;;;4914645;29;20028;-65
2022/05/26 02:38:22;;;;;;;4.30;0.80;;;17.40;91.00;;;;;;4914624;29;20361;-65
2022/05/26 02:40:51;;;;;;;0.90;0.40;;;17.30;91.20;;;;;;4914580;29;20045;-65
2022/05/26 02:43:21;;;;;;;1.90;0.50;;;17.20;91.40;;;;;;4914520;29;20043;-65
2022/05/26 02:46:21;;;;;;;3.13;0.77;;;17.20;91.60;;;;;;4914799;29;20063;-65
2022/05/26 02:49:15;;;;;;;2.45;0.60;;;17.20;91.80;;;;;;4898222;29;20047;-65
2022/05/26 02:51:47;;;;;;;1.13;0.57;;;17.10;91.90;;;;;;4914455;29;20039;-67
2022/05/26 02:54:32;;;;;;;1.83;0.63;;;17.00;92.10;;;;;;4914317;29;20060;-66
2022/05/26 02:57:14;;;;;;;2.38;0.52;;;17.00;92.40;;;;;;4935715;28;20082;-66
2022/05/26 03:00:03;;;;;;;1.60;0.60;;;16.90;92.60;;;;;;4993295;28;20101;-65
2022/05/26 03:02:54;;;;;;;1.00;0.47;;;16.80;92.90;;;;;;4993199;28;20377;-65
2022/05/26 03:05:47;;;;;;;1.95;0.43;;;16.80;92.90;;;;;;4993113;28;20023;-65
2022/05/26 03:08:16;;;;;;;1.92;0.60;;;16.70;93.10;;;;;;4975638;28;20026;-66
2022/05/26 03:10:50;;;;;;;3.80;0.77;;;16.60;93.40;;;;;;4975644;28;20029;-66
2022/05/26 03:13:17;;;;;;;3.03;0.60;;;16.60;93.60;;;;;;4993415;28;20543;-65
2022/05/26 03:15:43;;;;;;;2.45;0.80;;;16.60;93.90;;;;;;4997638;28;20026;-65
2022/05/26 03:18:09;;;;;;;3.05;0.90;;;16.60;93.90;;;;;;4993577;28;20354;-64
2022/05/26 03:20:36;;;;;;;5.22;1.15;;;16.60;94.10;;;;;;4993256;28;20030;-64
2022/05/26 03:23:02;;;;;;;;;;;16.60;94.10;;;;;;4993371;28;20031;-64
2022/05/26 03:25:27;;;;;;;0.85;0.55;;;16.60;94.60;;;;;;4975854;28;19905;-65
2022/05/26 03:27:53;;;;;;;2.95;0.50;;;16.50;94.40;;;;;;4975644;28;20109;-66
2022/05/26 03:30:19;;;;;;;2.25;0.73;;;16.50;94.70;;;;;;4975523;28;20572;-65
2022/05/26 03:32:46;;;;;;;0.47;0.40;;;16.40;94.90;;;;;;4993320;28;20531;-66
2022/05/26 03:40:57;;;;;;;0.70;0.40;;;16.30;95.70;;;;;;4996755;28;20030;-65
2022/05/26 03:43:30;;;;;;;1.73;0.60;;;16.30;95.70;;;;;;4996284;28;20062;-65
2022/05/26 03:45:59;;;;;;;4.28;0.70;;;16.30;95.70;;;;;;4978803;28;20026;-65
2022/05/26 03:48:25;;;;;;;1.30;0.60;;;16.30;95.80;;;;;;4995968;28;20104;-66
2022/05/26 03:50:50;;;;;;;1.63;0.52;;;16.30;95.80;;;;;;4996189;28;20026;-65
2022/05/26 03:53:16;;;;;;;2.97;0.40;;;16.30;96.00;;;;;;4996004;28;20035;-65
2022/05/26 03:55:41;;;;;;;1.37;0.57;;;16.30;95.90;;;;;;4996101;28;20030;-65
2022/05/26 03:58:07;;;;;;;1.50;0.50;;;16.40;95.90;;;;;;4995931;28;20026;-66
2022/05/26 04:00:33;;;;;;;2.40;0.43;;;16.50;95.70;;;;;;4978760;28;20113;-66
2022/05/26 04:02:59;;;;;;;1.33;0.55;;;16.50;95.60;;;;;;4996361;28;20030;-65
2022/05/26 04:05:25;;;;;;;3.60;0.43;;;16.50;95.40;;;;;;4995985;28;20077;-65
2022/05/26 04:07:51;;;;;;;1.35;0.50;;;16.60;95.40;;;;;;4978474;28;20034;-66
2022/05/26 04:10:17;;;;;;;2.35;0.80;;;16.60;95.30;;;;;;4996004;28;20469;-66
2022/05/26 04:12:43;;;;;;;3.53;0.50;;;16.70;95.20;;;;;;4995585;28;20121;-65
2022/05/26 04:15:09;;;;;;;1.38;0.52;;;16.70;95.00;;;;;;4995658;28;20034;-65
2022/05/26 04:17:35;;;;;;;;;;;16.90;94.80;;;;;;4996061;28;20426;-65
2022/05/26 04:20:01;;;;;;;2.20;0.50;;;16.80;94.80;;;;;;4995653;28;19921;-65
2022/05/26 04:22:27;;;;;;;1.48;0.50;;;16.90;94.70;;;;;;4995548;28;20030;-65
2022/05/26 04:24:58;;;;;;;2.47;0.70;;;16.90;94.60;;;;;;4995394;28;20389;-65
2022/05/26 04:27:28;;;;;;;3.03;0.50;;;16.90;94.80;;;;;;4977910;28;20026;-65
2022/05/26 04:29:54;;;;;;;0.93;0.40;;;16.90;94.90;;;;;;4977782;28;20414;-65
2022/05/26 04:32:23;;;;;;;1.35;0.45;;;16.90;95.00;;;;;;4995230;28;20109;-65
2022/05/26 04:34:51;;;;;;;1.23;0.45;;;16.90;95.00;;;;;;4977738;28;20036;-65
2022/05/26 04:37:17;;;;;;;2.85;0.50;;;16.90;95.00;;;;;;4995212;28;20366;-65
2022/05/26 04:39:43;;;;;;;0.95;0.75;;;16.90;95.00;;;;;;4995128;28;20122;-65
2022/05/26 04:42:09;;;;;;;5.15;0.60;;;17.00;95.10;;;;;;4995101;28;20054;-64
2022/05/26 04:44:37;;;;;;;1.67;0.65;;;17.00;95.10;;;;;;4995299;28;20030;-65
2022/05/26 04:47:03;;;;;;;0.93;0.32;;;17.10;95.20;;;;;;4994608;28;20023;-66
2022/05/26 04:49:29;;;;;;;;;;;17.00;95.40;;;;;;4998402;28;20177;-65
2022/05/26 04:51:56;;;;;;;1.77;0.47;;;17.00;95.50;;;;;;4981398;28;20369;-65
2022/05/26 04:54:22;;;;;;;0.65;0.40;;;16.90;95.70;;;;;;4995246;28;20018;-65
2022/05/26 04:56:48;;;;;;;1.20;0.60;;;16.90;95.80;;;;;;4994990;28;20025;-65
2022/05/26 04:59:14;;;;;;;3.40;0.60;;;16.90;95.80;;;;;;4994976;28;20489;-65
2022/05/26 05:01:40;;;;;;;3.03;0.40;;;16.90;96.00;;;;;;4977569;28;20037;-65
2022/05/26 05:04:06;;;;;;;1.67;0.60;;;16.90;95.90;;;;;;4977514;28;20125;-65
2022/05/26 05:06:32;;;;;;;0.88;0.60;;;16.80;96.00;;;;;;4995615;28;20520;-65
2022/05/26 05:08:57;;;;;;;2.10;0.77;;;16.80;95.90;;;;;;4996408;28;20022;-66
2022/05/26 05:11:23;;;;;;;2.10;0.50;;;16.90;96.00;;;;;;4995815;28;20065;-66
2022/05/26 05:13:48;;;;;;;1.67;0.80;;;16.90;96.00;;;;;;4995477;28;20034;-64
2022/05/26 05:16:21;;;;;;;1.92;0.80;;;17.00;95.90;;;;;;4977523;28;20440;-65
2022/05/26 05:18:46;;;;;;;2.08;0.68;;;17.10;95.70;;;;;;4977510;28;20340;-65
2022/05/26 05:21:17;;;;;;;1.88;0.68;;;17.20;95.60;;;;;;4994884;28;20026;-64
2022/05/26 05:23:47;;;;;;;2.00;0.68;;;17.20;95.50;;;;;;4977223;28;20041;-65
2022/05/26 05:26:17;;;;;;;4.20;1.30;;;17.20;95.30;;;;;;4994437;28;20535;-66
2022/05/26 05:28:49;;;;;;;2.22;0.57;;;17.20;95.50;;;;;;4994368;28;20105;-66
2022/05/26 05:31:20;;;;;;;0.95;0.43;;;17.20;95.50;;;;;;4977006;28;20050;-66
2022/05/26 05:33:51;;;;;;;1.73;0.50;;;17.20;95.60;;;;;;4994543;28;20096;-66
2022/05/26 05:36:27;;;;;;;2.50;0.50;;;17.20;95.70;;;;;;4994367;28;20026;-66
2022/05/26 05:38:53;;;;;;;1.48;0.60;;;17.30;95.50;;;;;;4994204;28;20018;-66
2022/05/26 05:41:20;;;;;;;;;;;17.30;95.50;;;;;;4994855;28;20109;-66
2022/05/26 05:43:47;;;;;;;1.58;0.43;;;17.40;95.20;;;;;;4976837;28;20363;-66
2022/05/26 05:46:14;;;;;;;4.90;0.63;;;17.50;95.20;;;;;;4977556;28;20030;-66
2022/05/26 05:48:43;;;;;;;2.42;0.60;;;17.70;95.10;;;;;;4993867;28;20054;-65
2022/05/26 05:51:13;;;;;;;3.22;0.73;;;17.80;96.10;;;;;;4977009;28;20330;-66
2022/05/26 05:53:39;;;;;;;2.95;0.60;;;17.80;96.50;;;;;;4994330;28;20100;-66
2022/05/26 05:56:05;;;;;;;3.53;0.82;;;18.00;96.00;;;;;;4994002;28;20505;-66
2022/05/26 05:58:30;;;;;;;;;;;17.90;96.10;;;;;;4976696;28;20031;-65
2022/05/26 06:00:56;;;;;;;1.75;0.60;;;17.90;95.90;;;;;;4993664;28;20261;-65
2022/05/26 06:03:22;;;;;;;2.35;0.80;;;17.90;95.80;;;;;;4976067;28;20066;-65
2022/05/26 06:05:48;;;;;;;;;;;17.90;95.60;;;;;;4994331;28;20133;-65
2022/05/26 06:08:13;;;;;;;4.00;0.70;;;17.70;96.00;;;;;;4993739;28;20352;-65
2022/05/26 06:10:39;;;;;;;1.95;0.68;;;17.70;95.70;;;;;;4993988;28;20476;-65
2022/05/26 06:13:04;;;;;;;3.45;0.98;;;17.80;95.90;;;;;;4993775;28;20073;-65
2022/05/26 06:15:32;;;;;;;1.23;0.60;;;17.90;95.90;;;;;;4976204;28;20535;-66
2022/05/26 06:17:58;;;;;;;1.63;0.60;;;18.10;95.60;;;;;;4993415;28;20030;-64
2022/05/26 06:20:23;;;;;;;5.82;1.20;;;18.30;95.40;;;;;;4993608;28;20477;-65
2022/05/26 06:22:49;;;;;;;0.95;0.63;;;18.30;95.50;;;;;;4993621;28;20084;-63
2022/05/26 06:25:17;;;;;;;4.38;1.20;;;18.30;95.50;;;;;;4993485;28;20084;-65
2022/05/26 06:30:30;;;;;;;1.73;0.70;;;18.40;95.40;;;;;;4993202;28;20049;-64
2022/05/26 06:38:31;;;;;;;4.30;0.98;;;18.50;95.00;;;;;;4993513;28;20038;-66
2022/05/26 06:40:56;;;;;;;3.35;0.93;;;18.40;95.20;;;;;;4993282;28;20035;-66
2022/05/26 06:43:22;;;;;;;2.53;1.48;;;18.50;95.40;;;;;;4993715;28;20117;-66
2022/05/26 06:45:48;;;;;;;1.93;0.80;;;18.60;95.20;;;;;;4976118;28;20057;-67
2022/05/26 06:48:15;;;;;;;3.67;0.82;;;18.80;95.20;;;;;;4993285;28;20266;-66
2022/05/26 06:50:41;;;;;;;;;;;18.90;95.60;;;;;;4993897;28;20034;-66
2022/05/26 06:53:07;;;;;;;1.52;0.70;;;19.10;94.00;;;;;;4975966;28;19917;-66
2022/05/26 06:55:32;;;;;;;;;;;19.20;93.60;;;;;;4993413;28;20065;-66
2022/05/26 06:57:58;;;;;;;3.20;0.80;;;19.30;93.90;;;;;;4993376;28;20390;-66
2022/05/26 07:00:24;;;;;;;0.98;0.60;;;19.30;93.70;;;;;;4992999;28;20089;-68
2022/05/26 07:02:53;;;;;;;;;;;19.40;93.40;;;;;;4993203;28;20041;-68
2022/05/26 07:05:18;;;;;;;2.92;1.00;;;19.20;93.70;;;;;;4993151;28;20226;-69
2022/05/26 07:07:44;;;;;;;1.75;0.63;;;19.30;93.70;;;;;;4992549;28;20033;-68
2022/05/26 07:10:13;;;;;;;3.00;0.70;;;19.20;93.90;;;;;;4993596;28;20061;-69
2022/05/26 07:12:40;;;;;;;2.10;0.90;;;19.10;93.90;;;;;;4979257;28;20106;-69
2022/05/26 07:15:07;;;;;;;1.88;0.90;;;19.00;93.90;;;;;;4979315;28;20409;-69
2022/05/26 07:17:33;;;;;;;1.75;0.60;;;18.90;94.10;;;;;;4996948;28;20023;-69
2022/05/26 07:19:58;;;;;;;4.57;0.90;;;19.00;94.20;;;;;;4996596;28;20026;-69
2022/05/26 07:22:24;;;;;;;1.83;0.73;;;19.10;93.90;;;;;;4996683;28;20061;-68
2022/05/26 07:24:51;;;;;;;2.42;0.93;;;19.10;93.60;;;;;;4979093;28;20449;-68
2022/05/26 07:27:17;;;;;;;3.55;0.90;;;19.20;93.50;;;;;;4996591;28;20400;-69
2022/05/26 07:29:43;;;;;;;3.95;0.82;;;19.20;93.80;;;;;;4996512;28;20030;-68
2022/05/26 07:32:08;;;;;;;2.53;0.82;;;19.20;93.80;;;;;;4978993;28;20377;-68
2022/05/26 07:34:34;;;;;;;1.48;0.70;;;19.30;93.70;;;;;;4979091;28;20113;-68
2022/05/26 07:42:33;;;;;;;5.38;1.30;;;19.10;94.20;;;;;;4996607;28;20089;-68
2022/05/26 07:45:01;;;;;;;1.50;0.88;;;19.10;94.20;;;;;;4978796;28;20485;-68
2022/05/26 07:47:27;;;;;;;2.70;0.75;;;19.10;94.20;;;;;;4996182;28;20109;-68
2022/05/26 07:49:54;;;;;;;2.20;0.70;;;18.90;94.40;;;;;;4996725;28;20077;-69
2022/05/26 07:52:20;;;;;;;4.53;0.80;;;18.80;94.80;;;;;;4997057;28;20026;-69
2022/05/26 07:54:46;;;;;;;1.20;0.85;;;18.60;94.80;;;;;;4980605;28;20033;-68
2022/05/26 07:57:18;;;;;;;;;;;18.60;94.70;;;;;;4996829;28;20031;-66
2022/05/26 07:59:43;;;;;;;4.68;0.90;;;18.50;94.90;;;;;;4978464;28;19997;-66
2022/05/26 08:02:09;;;;;;;1.58;0.82;;;18.60;94.80;;;;;;4995679;28;20493;-66
2022/05/26 08:04:34;;;;;;;5.43;1.40;;;18.60;94.90;;;;;;4995993;28;20027;-67
2022/05/26 08:07:00;;;;;;;1.83;0.70;;;18.60;95.00;;;;;;4995740;28;20018;-66
2022/05/26 08:09:26;;;;;;;3.53;0.80;;;18.60;95.00;;;;;;4978019;28;20504;-66
2022/05/26 08:11:51;;;;;;;4.90;0.90;;;18.60;95.10;;;;;;4995721;28;20038;-66
2022/05/26 08:14:17;;;;;;;3.05;0.85;;;18.60;95.00;;;;;;4978455;28;20485;-68
2022/05/26 08:16:43;;;;;;;2.72;0.90;;;18.60;95.10;;;;;;4978067;28;20034;-67
2022/05/26 08:19:09;;;;;;;3.33;0.90;;;18.60;95.10;;;;;;4995437;28;20062;-67
2022/05/26 08:21:35;;;;;;;2.22;0.80;;;18.70;95.40;;;;;;4994335;28;20026;-67
2022/05/26 08:24:02;;;;;;;3.33;0.98;;;18.80;95.10;;;;;;4995110;28;20088;-67
2022/05/26 08:26:28;;;;;;;;;;;19.00;94.70;;;;;;4996188;28;20053;-67
2022/05/26 08:28:55;;;;;;;4.00;1.42;;;19.10;94.60;;;;;;4995287;28;20379;-67
2022/05/26 08:31:20;;;;;;;5.22;1.50;;;19.20;94.60;;;;;;4995298;28;20038;-67
2022/05/26 08:33:46;;;;;;;2.60;0.90;;;19.30;94.30;;;;;;4995464;28;20042;-67
2022/05/26 08:36:15;;;;;;;4.13;1.20;;;19.40;94.30;;;;;;4995679;28;20467;-68
2022/05/26 08:38:41;;;;;;;3.13;0.80;;;19.50;94.00;;;;;;4995493;28;20046;-67
2022/05/26 08:41:10;;;;;;;2.42;0.90;;;19.50;94.10;;;;;;4995367;28;20057;-68
2022/05/26 08:43:40;;;;;;;4.53;1.00;;;19.50;94.20;;;;;;4995634;28;20030;-68
2022/05/26 08:46:09;;;;;;;3.35;0.82;;;19.60;94.00;;;;;;4977676;28;20030;-68
2022/05/26 08:49:02;;;;;;;2.92;1.42;;;19.80;93.90;;;;;;4995052;28;20034;-68
2022/05/26 08:51:50;;;;;;;3.10;0.90;;;20.10;93.50;;;;;;4995511;28;20027;-68
2022/05/26 08:54:24;;;;;;;3.13;1.02;;;20.10;93.50;;;;;;4996219;28;20370;-69
2022/05/26 08:56:51;;;;;;;4.38;1.20;;;20.30;93.40;;;;;;4995613;28;20496;-69
2022/05/26 08:59:20;;;;;;;2.40;1.00;;;20.20;93.30;;;;;;4995170;28;20026;-69
2022/05/26 09:01:46;;;;;;;2.72;1.00;;;20.20;93.40;;;;;;4995194;28;20058;-68
2022/05/26 09:04:11;;;;;;;2.13;1.10;;;20.10;93.30;;;;;;4995157;28;20076;-68
2022/05/26 09:15:15;;;;;;;3.78;1.10;;;20.30;93.70;;;;;;4995127;28;20033;-68
2022/05/26 09:17:41;;;;;;;3.40;1.00;;;20.20;93.60;;;;;;4994855;28;20459;-67
2022/05/26 09:20:28;;;;;;;7.63;1.10;;;20.10;93.40;;;;;;4976969;28;20040;-69
2022/05/26 09:23:07;;;;;;;2.90;1.23;;;20.10;93.30;;;;;;4994500;28;20029;-68
2022/05/26 09:26:11;;;;;;;3.45;1.00;;;20.20;93.40;;;;;;4994903;28;20394;-68
2022/05/26 09:28:46;;;;;;;5.10;1.50;;;20.30;93.30;;;;;;4915417;29;20245;-67
2022/05/26 09:31:36;;;;;;;2.58;1.10;;;20.40;93.20;;;;;;4899714;29;20056;-69
2022/05/26 09:34:26;;;;;;;5.03;1.35;;;20.40;92.80;;;;;;4915340;29;20032;-68
2022/05/26 09:37:00;;;;;;;2.13;0.90;;;20.30;93.10;;;;;;4899692;29;20036;-69
2022/05/26 09:39:42;;;;;;;3.58;1.00;;;20.30;93.50;;;;;;4914795;29;20059;-69
2022/05/26 09:42:16;;;;;;;2.70;1.05;;;20.40;93.30;;;;;;4914993;29;20024;-69
2022/05/26 09:45:02;;;;;;;2.50;1.20;;;20.20;93.60;;;;;;4899229;29;20036;-69
2022/05/26 09:47:38;;;;;;;1.70;0.90;;;20.10;93.60;;;;;;4899636;29;20032;-69
2022/05/26 09:50:12;;;;;;;3.13;1.13;;;19.90;93.90;;;;;;4915168;29;20104;-69
2022/05/26 09:52:44;;;;;;;4.05;1.75;;;19.70;93.90;;;;;;4899228;29;20032;-69
2022/05/26 09:55:15;;;;;;;2.90;1.15;;;19.60;94.10;;;;;;4914945;29;20031;-70
2022/05/26 09:57:40;;;;;;;5.35;1.27;;;19.70;94.30;;;;;;4915256;29;20035;-67
2022/05/26 10:00:44;;;;;;;4.80;0.93;;;19.70;94.50;;;;;;4915012;29;20032;-68
2022/05/26 10:03:21;;;;;;;2.05;1.15;;;19.70;94.60;;;;;;4974389;28;20039;-68
2022/05/26 10:06:08;;;;;;;1.98;0.80;;;19.70;94.50;;;;;;4993719;28;20037;-68
2022/05/26 10:09:01;;;;;;;1.60;0.80;;;19.80;94.50;;;;;;4993781;28;20365;-68
2022/05/26 10:11:27;;;;;;;6.68;1.30;;;19.70;94.30;;;;;;4976543;28;20346;-68
2022/05/26 10:14:21;;;;;;;4.68;1.25;;;19.70;94.30;;;;;;4993349;28;20034;-68
2022/05/26 10:16:47;;;;;;;3.17;0.90;;;19.70;94.30;;;;;;4975974;28;20520;-68
2022/05/26 10:19:19;;;;;;;2.15;0.95;;;19.70;94.30;;;;;;4993274;28;20030;-68
2022/05/26 10:22:22;;;;;;;1.70;0.90;;;19.40;95.50;;;;;;4976056;28;20034;-68
2022/05/26 10:25:14;;;;;;;5.85;1.20;;;19.30;95.90;;;;;;4975992;28;20417;-69
2022/05/26 10:28:07;;;;;;;2.63;1.00;;;19.30;95.70;;;;;;4993580;28;20023;-69
2022/05/26 10:30:54;;;;;;;5.25;1.20;;;19.20;95.60;;;;;;4975918;28;20030;-68
2022/05/26 10:33:34;;;;;;;3.15;1.25;;;19.30;95.80;;;;;;4993505;28;20026;-68
2022/05/26 10:36:15;;;;;;;3.13;1.23;;;19.50;96.00;;;;;;4976030;28;20117;-69
2022/05/26 10:38:56;;;;;;;2.35;1.38;;;19.40;97.20;;;;;;4993306;28;20156;-68
2022/05/26 10:41:43;;;;;;;2.45;1.38;;;19.40;97.60;;;;;;4993322;28;20019;-69
2022/05/26 10:44:17;;;;;;;;;;;19.70;97.20;;;;;;4993696;28;20026;-68
2022/05/26 10:47:11;;;;;;;2.60;1.15;;;20.00;96.40;;;;;;4997401;28;19961;-68
2022/05/26 10:50:24;;;;;;;1.52;0.98;;;20.20;95.80;;;;;;4940618;28;20393;-68
2022/05/26 10:53:15;;;;;;;4.80;1.33;;;20.50;95.00;;;;;;4979653;28;20030;-68
2022/05/26 10:56:05;;;;;;;3.63;1.10;;;20.80;94.60;;;;;;4978847;28;20038;-68
2022/05/26 10:58:41;;;;;;;4.68;1.30;;;21.10;93.70;;;;;;4997051;28;20034;-68
2022/05/26 11:01:36;;;;;;;5.82;1.63;;;21.30;93.50;;;;;;4997274;28;20045;-68
2022/05/26 11:04:25;;;;;;;5.47;1.30;;;21.40;93.30;;;;;;4997471;28;20061;-68
2022/05/26 11:06:55;;;;;;;41.03;2.25;;;21.80;92.50;;;;;;4997810;28;20022;-68
2022/05/26 11:09:45;;;;;;;4.78;1.48;;;21.90;92.20;;;;;;4997051;28;20101;-68
2022/05/26 11:12:16;;;;;;;1.92;1.10;;;22.30;91.30;;;;;;4979359;28;20061;-69
2022/05/26 11:17:39;;;;;;;2.55;0.90;;;22.60;90.90;;;;;;4996909;28;20468;-69
2022/05/26 11:20:12;;;;;;;2.60;0.80;;;22.90;90.10;;;;;;4978908;28;20068;-68
2022/05/26 11:22:41;;;;;;;2.13;0.85;;;22.80;89.80;;;;;;4996505;28;20101;-68
2022/05/26 11:25:07;;;;;;;0.98;0.80;;;22.50;90.30;;;;;;4996457;28;20026;-68
2022/05/26 11:28:00;;;;;;;3.58;0.90;;;22.70;90.20;;;;;;4996424;28;20050;-68
2022/05/26 11:36:23;;;;;;;;;;;23.40;87.80;;;;;;4997278;28;20432;-68
2022/05/26 11:38:50;;;;;;;1.98;0.77;;;23.30;87.70;;;;;;4996095;28;20336;-69
2022/05/26 11:41:34;;;;;;;1.55;0.85;;;22.90;88.30;;;;;;4996099;28;20038;-68
2022/05/26 11:44:02;;;;;;;1.60;0.85;;;22.60;89.10;;;;;;4996132;28;20096;-68
2022/05/26 11:46:48;;;;;;;1.48;0.90;;;22.10;89.60;;;;;;4978372;28;20354;-67
2022/05/26 11:49:45;;;;;;;2.00;1.10;;;21.70;90.60;;;;;;4995780;28;20026;-68
2022/05/26 11:52:22;;;;;;;1.63;0.93;;;21.50;91.00;;;;;;4996115;28;20029;-69
2022/05/26 11:54:59;;;;;;;2.67;0.90;;;21.30;91.00;;;;;;4996426;28;20026;-69
2022/05/26 11:57:42;;;;;;;2.50;0.90;;;21.30;91.20;;;;;;4996110;28;20473;-69
2022/05/26 12:00:22;;;;;;;4.53;1.13;;;21.30;91.10;;;;;;4995878;28;20045;-69
2022/05/26 12:02:53;;;;;;;3.17;1.15;;;21.40;91.10;;;;;;4995762;28;20503;-69
2022/05/26 12:05:30;;;;;;;2.33;0.75;;;21.70;90.80;;;;;;4996032;28;20022;-69
2022/05/26 12:08:03;;;;;;;3.15;0.80;;;21.90;90.70;;;;;;4978159;28;20204;-67
2022/05/26 12:10:38;;;;;;;5.07;0.90;;;22.00;90.50;;;;;;4995764;28;20105;-69
2022/05/26 12:13:23;;;;;;;1.45;0.82;;;22.20;90.00;;;;;;4995900;28;20062;-69
2022/05/26 12:16:13;;;;;;;2.55;0.80;;;22.50;90.00;;;;;;4978429;28;20026;-69
2022/05/26 12:18:46;;;;;;;1.83;1.05;;;22.70;88.60;;;;;;4995383;28;20026;-69
2022/05/26 12:21:46;;;;;;;2.50;0.73;;;22.80;87.60;;;;;;4978718;28;20120;-70
2022/05/26 12:24:49;;;;;;;1.77;0.90;;;22.80;87.50;;;;;;4946655;28;20505;-69
2022/05/26 12:27:56;;;;;;;2.53;1.00;;;22.90;87.30;;;;;;4902158;29;20089;-69
2022/05/26 12:30:46;;;;;;;5.55;0.80;;;22.90;87.40;;;;;;4900661;29;20041;-69
2022/05/26 12:33:20;;;;;;;1.92;0.85;;;22.80;86.90;;;;;;4919089;29;20152;-69
2022/05/26 12:36:23;;;;;;;2.20;0.73;;;22.60;87.40;;;;;;4916502;29;20040;-69
2022/05/26 12:39:25;;;;;;;2.65;0.80;;;22.50;87.10;;;;;;4916455;29;20110;-69
2022/05/26 12:42:15;;;;;;;1.58;1.00;;;22.30;87.40;;;;;;4916378;29;20111;-68
2022/05/26 12:45:03;;;;;;;3.03;0.90;;;22.30;87.80;;;;;;4916702;29;20042;-69
2022/05/26 12:47:36;;;;;;;1.58;0.90;;;22.00;87.40;;;;;;4916525;29;20065;-70
2022/05/26 12:50:02;;;;;;;2.45;1.15;;;21.80;88.90;;;;;;4900440;29;20119;-70
2022/05/26 12:52:32;;;;;;;3.35;1.10;;;21.80;89.50;;;;;;4917511;29;20052;-70
2022/05/26 12:55:22;;;;;;;3.17;0.95;;;22.00;88.90;;;;;;4918052;29;20028;-68
2022/05/26 12:58:00;;;;;;;2.42;1.02;;;22.10;88.80;;;;;;4919701;29;20032;-69
2022/05/26 13:00:26;;;;;;;3.17;0.80;;;22.30;89.10;;;;;;4932362;28;20066;-68
2022/05/26 13:03:04;;;;;;;1.23;0.77;;;22.40;87.90;;;;;;4996115;28;20076;-68
2022/05/26 13:05:33;;;;;;;3.45;0.80;;;22.30;87.10;;;;;;4977542;28;20027;-68
2022/05/26 13:07:59;;;;;;;2.53;0.93;;;22.30;88.40;;;;;;4994360;28;20469;-68
2022/05/26 13:10:30;;;;;;;1.23;0.80;;;22.30;87.80;;;;;;4995250;28;20019;-69
2022/05/26 13:12:57;;;;;;;2.45;1.08;;;22.30;87.00;;;;;;4977815;28;20030;-69
2022/05/26 13:15:26;;;;;;;1.35;0.63;;;22.30;86.40;;;;;;4994911;28;20057;-68
2022/05/26 13:17:53;;;;;;;2.15;0.75;;;22.40;86.90;;;;;;4994983;28;20040;-70
2022/05/26 13:20:30;;;;;;;2.30;1.10;;;22.50;86.40;;;;;;4994924;28;20421;-69
2022/05/26 13:22:55;;;;;;;1.60;0.80;;;22.80;86.20;;;;;;4994809;28;20029;-69
2022/05/26 13:25:27;;;;;;;1.30;0.75;;;22.90;85.50;;;;;;4994680;28;20101;-69
2022/05/26 13:27:59;;;;;;;2.35;0.93;;;22.80;85.40;;;;;;4976991;28;20030;-69
2022/05/26 13:33:23;;;;;;;2.50;0.80;;;22.50;85.20;;;;;;4994724;28;20033;-67
2022/05/26 13:35:56;;;;;;;1.00;0.60;;;22.50;85.20;;;;;;4994348;28;20037;-66
2022/05/26 13:38:26;;;;;;;1.77;1.10;;;22.50;85.40;;;;;;4994063;28;20022;-67
2022/05/26 13:40:51;;;;;;;2.10;1.23;;;22.60;85.50;;;;;;4976400;28;20093;-66
2022/05/26 13:43:18;;;;;;;2.30;1.23;;;22.40;85.80;;;;;;4993861;28;20579;-66
2022/05/26 13:45:44;;;;;;;1.73;1.02;;;22.30;84.60;;;;;;4993711;28;20030;-66
2022/05/26 13:48:29;;;;;;;2.67;1.17;;;22.40;83.80;;;;;;4993656;28;20092;-67
2022/05/26 13:51:13;;;;;;;3.22;1.30;;;22.40;83.10;;;;;;4993935;28;20030;-66
2022/05/26 13:53:48;;;;;;;3.10;1.15;;;22.40;83.60;;;;;;4993903;28;20504;-66
2022/05/26 13:56:34;;;;;;;3.13;1.00;;;22.60;83.40;;;;;;4993670;28;20027;-67
2022/05/26 13:59:09;;;;;;;1.33;0.70;;;22.60;83.80;;;;;;4994167;28;20084;-67
2022/05/26 14:01:40;;;;;;;2.22;0.80;;;22.60;83.30;;;;;;4976457;28;20420;-67